createdAt,value
2022-12-03T00:00:00.124Z,18.40
2022-12-03T00:02:47.546Z,17.75
2022-12-03T00:05:37.652Z,18.27
2022-12-03T00:08:24.946Z,17.55
2022-12-03T00:11:12.282Z,19.27
2022-12-03T00:13:59.813Z,18.05
2022-12-03T00:16:47.814Z,22.40
2022-12-03T00:19:35.213Z,18.05
2022-12-03T00:22:22.589Z,19.90
2022-12-03T00:25:10.035Z,20.33
2022-12-03T00:27:57.502Z,17.25
2022-12-03T00:30:44.870Z,20.23
2022-12-03T00:33:32.299Z,16.98
2022-12-03T00:36:19.798Z,17.30
2022-12-03T00:39:07.449Z,21.70
2022-12-03T00:41:54.832Z,20.70
2022-12-03T00:44:42.298Z,20.55
2022-12-03T00:47:29.767Z,21.77
2022-12-03T00:50:17.198Z,19.35
2022-12-03T00:53:04.734Z,19.65
2022-12-03T00:55:52.437Z,20.08
2022-12-03T00:58:39.825Z,19.63
2022-12-03T01:01:27.338Z,20.38
2022-12-03T01:04:14.860Z,21.73
2022-12-03T01:07:02.388Z,20.33
2022-12-03T01:09:49.924Z,20.15
2022-12-03T01:12:37.332Z,21.20
2022-12-03T01:15:24.737Z,19.23
2022-12-03T01:18:12.265Z,21.38
2022-12-03T01:20:59.605Z,20.25
2022-12-03T01:23:47.072Z,21.13
2022-12-03T01:26:34.455Z,18.75
2022-12-03T01:29:22.176Z,23.02
2022-12-03T01:32:17.119Z,23.08
2022-12-03T01:35:05.289Z,23.92
2022-12-03T01:37:52.702Z,20.77
2022-12-03T01:40:40.096Z,23.20
2022-12-03T01:43:27.559Z,24.90
2022-12-03T01:46:20.119Z,19.70
2022-12-03T01:49:14.736Z,21.63
2022-12-03T01:52:02.254Z,25.95
2022-12-03T01:54:53.881Z,20.70
2022-12-03T01:57:45.657Z,21.92
2022-12-03T02:00:33.182Z,21.35
2022-12-03T02:03:25.985Z,21.27
2022-12-03T02:06:19.562Z,22.88
2022-12-03T02:09:08.759Z,22.02
2022-12-03T02:11:56.229Z,20.50
2022-12-03T02:14:44.142Z,20.60
2022-12-03T02:17:32.378Z,19.52
2022-12-03T02:20:20.171Z,23.17
2022-12-03T02:23:14.122Z,20.33
2022-12-03T02:26:01.568Z,23.20
2022-12-03T02:28:49.403Z,22.88
2022-12-03T02:31:37.493Z,21.85
2022-12-03T02:34:37.396Z,25.80
2022-12-03T02:37:30.887Z,23.98
2022-12-03T02:40:21.465Z,21.45
2022-12-03T02:43:09.788Z,23.15
2022-12-03T02:46:00.550Z,19.38
2022-12-03T02:48:47.922Z,22.35
2022-12-03T02:51:35.788Z,21.60
2022-12-03T02:54:23.573Z,20.65
2022-12-03T02:57:11.377Z,22.92
2022-12-03T02:59:58.751Z,22.38
2022-12-03T03:02:47.520Z,22.08
2022-12-03T03:05:37.721Z,23.60
2022-12-03T03:08:26.999Z,23.23
2022-12-03T03:11:14.534Z,21.58
2022-12-03T03:14:02.938Z,21.45
2022-12-03T03:16:56.324Z,22.38
2022-12-03T03:19:44.026Z,24.77
2022-12-03T03:22:37.163Z,22.05
2022-12-03T03:25:24.839Z,21.88
2022-12-03T03:28:13.467Z,21.83
2022-12-03T03:31:02.860Z,21.55
2022-12-03T03:33:51.663Z,21.73
2022-12-03T03:36:39.796Z,22.13
2022-12-03T03:39:27.528Z,22.88
2022-12-03T03:42:15.467Z,21.67
2022-12-03T03:45:03.070Z,23.77
2022-12-03T03:47:50.485Z,24.35
2022-12-03T03:50:38.215Z,25.77
2022-12-03T03:53:25.970Z,23.15
2022-12-03T03:56:14.460Z,22.67
2022-12-03T03:59:02.920Z,23.60
2022-12-03T04:01:50.438Z,24.08
2022-12-03T04:04:37.832Z,21.40
2022-12-03T04:07:25.335Z,21.08
2022-12-03T04:10:32.993Z,23.50
2022-12-03T04:13:20.364Z,21.25
2022-12-03T04:16:07.934Z,20.30
2022-12-03T04:18:55.392Z,20.70
2022-12-03T04:22:01.374Z,21.27
2022-12-03T04:24:49.056Z,22.77
2022-12-03T04:27:55.112Z,21.75
2022-12-03T04:30:42.636Z,19.73
2022-12-03T04:33:48.753Z,20.48
2022-12-03T04:36:36.097Z,20.65
2022-12-03T04:39:23.694Z,21.77
2022-12-03T04:42:11.152Z,21.08
2022-12-03T04:44:58.643Z,18.60
2022-12-03T04:47:46.074Z,20.40
2022-12-03T04:50:33.564Z,19.63
2022-12-03T04:53:20.932Z,19.75
2022-12-03T04:56:08.741Z,20.75
2022-12-03T04:58:56.191Z,21.33
2022-12-03T05:01:45.214Z,42.03
2022-12-03T05:04:32.724Z,20.58
2022-12-03T05:07:20.107Z,19.40
2022-12-03T05:10:08.259Z,22.25
2022-12-03T05:12:56.132Z,18.98
2022-12-03T05:15:43.505Z,20.73
2022-12-03T05:18:30.858Z,21.45
2022-12-03T05:21:18.503Z,19.92
2022-12-03T05:24:06.655Z,22.08
2022-12-03T05:26:53.944Z,23.00
2022-12-03T05:29:41.522Z,22.17
2022-12-03T05:32:28.909Z,18.75
2022-12-03T05:35:16.575Z,20.83
2022-12-03T05:38:03.879Z,18.98
2022-12-03T05:40:51.286Z,20.50
2022-12-03T05:43:38.804Z,20.00
2022-12-03T05:46:26.247Z,18.40
2022-12-03T05:49:13.687Z,18.70
2022-12-03T05:52:01.442Z,19.83
2022-12-03T05:54:49.533Z,19.88
2022-12-03T05:57:37.100Z,18.77
2022-12-03T06:00:27.897Z,22.80
2022-12-03T06:03:15.794Z,17.90
2022-12-03T06:06:03.357Z,18.88
2022-12-03T06:08:50.654Z,18.83
2022-12-03T06:11:38.123Z,18.77
2022-12-03T06:14:25.528Z,18.25
2022-12-03T06:17:12.883Z,19.33
2022-12-03T06:20:00.341Z,20.17
2022-12-03T06:22:48.150Z,22.73
2022-12-03T06:25:35.605Z,21.00
2022-12-03T06:28:22.901Z,20.48
2022-12-03T06:31:10.340Z,19.90
2022-12-03T06:33:57.849Z,18.88
2022-12-03T06:36:47.196Z,20.83
2022-12-03T06:39:34.682Z,18.90
2022-12-03T06:42:22.290Z,18.73
2022-12-03T06:45:10.113Z,18.65
2022-12-03T06:47:57.704Z,18.63
2022-12-03T06:50:45.092Z,19.83
2022-12-03T06:53:32.414Z,20.50
2022-12-03T06:56:22.335Z,19.05
2022-12-03T06:59:10.033Z,19.50
2022-12-03T07:01:57.373Z,19.63
2022-12-03T07:04:46.577Z,20.15
2022-12-03T07:07:34.200Z,20.27
2022-12-03T07:10:22.537Z,20.45
2022-12-03T07:13:10.041Z,19.50
2022-12-03T07:15:57.740Z,20.23
2022-12-03T07:18:45.158Z,19.30
2022-12-03T07:21:32.774Z,20.52
2022-12-03T07:24:20.393Z,21.92
2022-12-03T07:27:07.994Z,19.75
2022-12-03T07:29:55.638Z,19.73
2022-12-03T07:32:43.278Z,18.23
2022-12-03T07:35:30.917Z,20.83
2022-12-03T07:38:18.396Z,18.40
2022-12-03T07:41:06.049Z,19.75
2022-12-03T07:43:53.412Z,19.95
2022-12-03T07:46:41.131Z,20.55
2022-12-03T07:49:28.696Z,19.63
2022-12-03T07:52:16.036Z,20.33
2022-12-03T07:55:03.486Z,18.35
2022-12-03T07:57:51.431Z,19.38
2022-12-03T08:00:38.871Z,20.35
2022-12-03T08:03:26.259Z,19.10
2022-12-03T08:06:13.672Z,18.45
2022-12-03T08:09:01.070Z,17.45
2022-12-03T08:11:49.078Z,19.58
2022-12-03T08:14:36.526Z,18.65
2022-12-03T08:17:24.644Z,17.17
2022-12-03T08:20:20.567Z,20.13
2022-12-03T08:23:21.921Z,18.65
2022-12-03T08:26:19.550Z,17.93
2022-12-03T08:29:16.568Z,21.30
2022-12-03T08:32:07.042Z,20.45
2022-12-03T08:34:55.204Z,19.50
2022-12-03T08:37:42.763Z,19.33
2022-12-03T08:40:42.968Z,18.85
2022-12-03T08:43:36.052Z,19.95
2022-12-03T08:46:23.582Z,18.73
2022-12-03T08:49:11.176Z,18.30
2022-12-03T08:52:01.531Z,18.25
2022-12-03T08:54:55.074Z,21.05
2022-12-03T08:57:43.660Z,19.80
2022-12-03T09:00:31.104Z,18.73
2022-12-03T09:03:19.615Z,17.45
2022-12-03T09:06:07.457Z,17.75
2022-12-03T09:08:54.765Z,19.15
2022-12-03T09:11:43.735Z,17.65
2022-12-03T09:14:31.402Z,18.40
2022-12-03T09:17:18.792Z,18.92
2022-12-03T09:20:07.225Z,19.98
2022-12-03T09:22:54.773Z,18.38
2022-12-03T09:25:42.066Z,20.42
2022-12-03T09:28:29.813Z,17.83
2022-12-03T09:31:17.186Z,16.73
2022-12-03T09:34:05.596Z,18.50
2022-12-03T09:36:53.033Z,25.42
2022-12-03T09:39:40.493Z,18.92
2022-12-03T09:42:28.068Z,18.08
2022-12-03T09:45:16.622Z,19.05
2022-12-03T09:48:04.423Z,19.40
2022-12-03T09:50:52.269Z,17.52
2022-12-03T09:53:41.490Z,19.95
2022-12-03T09:56:29.157Z,19.83
2022-12-03T09:59:17.671Z,20.23
2022-12-03T10:02:16.568Z,18.00
2022-12-03T10:05:04.180Z,19.98
2022-12-03T10:07:53.188Z,18.85
2022-12-03T10:10:42.309Z,19.08
2022-12-03T10:13:51.573Z,18.55
2022-12-03T10:16:40.286Z,18.67
2022-12-03T10:19:31.599Z,18.95
2022-12-03T10:22:19.075Z,18.45
2022-12-03T10:25:37.593Z,17.40
2022-12-03T10:28:39.400Z,17.77
2022-12-03T10:31:36.425Z,18.65
2022-12-03T10:34:30.747Z,18.38
2022-12-03T10:37:20.705Z,19.50
2022-12-03T10:40:11.615Z,17.83
2022-12-03T10:43:18.146Z,17.35
2022-12-03T10:46:20.442Z,18.85
2022-12-03T10:49:16.414Z,17.27
2022-12-03T10:52:05.484Z,18.67
2022-12-03T10:54:53.193Z,18.90
2022-12-03T10:57:45.324Z,18.08
2022-12-03T11:00:33.130Z,18.25
2022-12-03T11:03:23.981Z,17.13
2022-12-03T11:06:18.538Z,16.85
2022-12-03T11:09:16.584Z,18.25
2022-12-03T11:12:06.294Z,20.35
2022-12-03T11:14:58.004Z,19.10
2022-12-03T11:17:46.773Z,19.05
2022-12-03T11:20:51.639Z,17.92
2022-12-03T11:23:50.351Z,18.52
2022-12-03T11:26:49.448Z,19.30
2022-12-03T11:29:55.675Z,18.08
2022-12-03T11:32:44.070Z,18.05
2022-12-03T11:36:03.927Z,18.58
2022-12-03T11:38:54.454Z,17.35
2022-12-03T11:42:25.973Z,18.55
2022-12-03T11:45:21.168Z,16.95
2022-12-03T11:48:16.435Z,18.25
2022-12-03T11:51:04.914Z,20.10
2022-12-03T11:54:03.513Z,18.48
2022-12-03T11:56:54.772Z,18.00
2022-12-03T11:59:59.066Z,17.33
2022-12-03T12:02:47.179Z,16.17
2022-12-03T12:05:35.031Z,18.00
2022-12-03T12:08:22.476Z,18.25
2022-12-03T12:11:20.444Z,17.70
2022-12-03T12:14:13.629Z,17.52
2022-12-03T12:17:03.279Z,16.73
2022-12-03T12:19:54.393Z,17.25
2022-12-03T12:22:42.152Z,17.60
2022-12-03T12:25:40.319Z,19.17
2022-12-03T12:28:27.728Z,16.60
2022-12-03T12:31:15.088Z,16.90
2022-12-03T12:34:05.205Z,16.65
2022-12-03T12:36:56.952Z,15.90
2022-12-03T12:39:44.485Z,17.20
2022-12-03T12:42:37.244Z,15.20
2022-12-03T12:45:35.964Z,15.45
2022-12-03T12:48:30.626Z,16.80
2022-12-03T12:51:19.592Z,15.10
2022-12-03T12:54:12.962Z,17.10
2022-12-03T12:57:00.893Z,22.45
2022-12-03T12:59:49.417Z,20.10
2022-12-03T13:03:00.476Z,19.05
2022-12-03T13:05:53.545Z,17.77
2022-12-03T13:08:45.541Z,17.42
2022-12-03T13:11:42.815Z,18.25
2022-12-03T13:14:37.940Z,16.88
2022-12-03T13:17:28.361Z,17.20
2022-12-03T13:20:23.402Z,18.05
2022-12-03T13:23:33.017Z,18.75
2022-12-03T13:26:37.682Z,17.05
2022-12-03T13:29:27.640Z,18.15
2022-12-03T13:32:22.572Z,16.92
2022-12-03T13:35:17.327Z,19.42
2022-12-03T13:38:13.588Z,17.08
2022-12-03T13:41:02.745Z,18.48
2022-12-03T13:43:50.030Z,18.88
2022-12-03T13:46:37.492Z,16.05
2022-12-03T13:49:25.082Z,18.48
2022-12-03T13:52:17.000Z,17.52
2022-12-03T13:55:06.632Z,18.23
2022-12-03T13:57:54.317Z,18.58
2022-12-03T14:00:41.756Z,18.20
2022-12-03T14:03:29.162Z,18.35
2022-12-03T14:06:16.811Z,19.55
2022-12-03T14:09:04.580Z,18.80
2022-12-03T14:12:10.349Z,18.08
2022-12-03T14:14:57.769Z,19.90
2022-12-03T14:17:45.142Z,18.75
2022-12-03T14:20:34.519Z,18.98
2022-12-03T14:23:21.887Z,18.45
2022-12-03T14:26:09.209Z,17.48
2022-12-03T14:28:56.934Z,19.70
2022-12-03T14:31:44.349Z,18.52
2022-12-03T14:34:31.996Z,18.67
2022-12-03T14:37:19.321Z,20.75
2022-12-03T14:40:09.003Z,21.77
2022-12-03T14:42:56.427Z,22.60
2022-12-03T14:45:43.800Z,20.73
2022-12-03T14:48:31.226Z,19.77
2022-12-03T14:51:18.652Z,20.33
2022-12-03T14:54:06.068Z,19.83
2022-12-03T14:56:53.715Z,17.98
2022-12-03T14:59:42.661Z,18.42
2022-12-03T15:02:30.422Z,19.48
2022-12-03T15:05:22.081Z,21.33
2022-12-03T15:08:12.375Z,20.33
2022-12-03T15:11:00.120Z,19.38
2022-12-03T15:13:47.575Z,21.67
2022-12-03T15:16:35.279Z,22.25
2022-12-03T15:19:22.716Z,21.08
2022-12-03T15:22:10.146Z,21.17
2022-12-03T15:24:57.559Z,25.17
2022-12-03T15:27:45.115Z,23.30
2022-12-03T15:30:35.527Z,23.48
2022-12-03T15:33:22.953Z,25.10
2022-12-03T15:36:10.274Z,25.15
2022-12-03T15:38:57.753Z,25.35
2022-12-03T15:41:45.202Z,22.02
2022-12-03T15:44:32.488Z,23.58
2022-12-03T15:47:19.827Z,24.40
2022-12-03T15:50:08.022Z,23.67
2022-12-03T15:52:55.739Z,23.27
2022-12-03T15:55:43.337Z,23.13
2022-12-03T15:58:30.734Z,21.95
2022-12-03T16:01:18.517Z,21.98
2022-12-03T16:04:06.314Z,21.55
2022-12-03T16:06:53.763Z,20.92
2022-12-03T16:09:41.043Z,20.60
2022-12-03T16:12:29.056Z,22.52
2022-12-03T16:15:17.657Z,22.90
2022-12-03T16:18:07.185Z,21.88
2022-12-03T16:20:54.578Z,23.23
2022-12-03T16:23:41.903Z,23.48
2022-12-03T16:26:29.227Z,21.92
2022-12-03T16:29:16.705Z,23.15
2022-12-03T16:32:04.101Z,24.90
2022-12-03T16:34:51.469Z,23.88
2022-12-03T16:37:38.924Z,23.98
2022-12-03T16:40:26.385Z,24.08
2022-12-03T16:43:13.759Z,23.90
2022-12-03T16:46:20.985Z,24.58
2022-12-03T16:49:08.840Z,23.50
2022-12-03T16:51:56.379Z,23.70
2022-12-03T16:54:43.706Z,24.77
2022-12-03T16:57:33.836Z,25.88
2022-12-03T17:00:26.224Z,27.13
2022-12-03T17:06:02.168Z,24.50
2022-12-03T17:08:50.139Z,23.92
2022-12-03T17:11:37.727Z,24.70
2022-12-03T17:14:28.649Z,24.85
2022-12-03T17:17:20.298Z,24.42
2022-12-03T17:20:08.737Z,24.27
2022-12-03T17:22:57.053Z,23.63
2022-12-03T17:25:44.532Z,24.80
2022-12-03T17:28:31.983Z,23.10
2022-12-03T17:31:19.532Z,26.85
2022-12-03T17:34:06.905Z,24.67
2022-12-03T17:36:54.498Z,24.85
2022-12-03T17:39:42.208Z,25.65
2022-12-03T17:42:29.653Z,23.60
2022-12-03T17:45:17.241Z,23.55
2022-12-03T17:48:04.820Z,25.23
2022-12-03T17:50:52.423Z,24.20
2022-12-03T17:53:39.981Z,24.83
2022-12-03T17:56:27.353Z,25.40
2022-12-03T17:59:15.055Z,24.42
2022-12-03T18:02:02.771Z,26.00
2022-12-03T18:04:50.167Z,25.23
2022-12-03T18:07:37.688Z,24.08
2022-12-03T18:10:25.700Z,25.48
2022-12-03T18:13:13.177Z,26.50
2022-12-03T18:16:01.689Z,26.00
2022-12-03T18:18:52.449Z,25.48
2022-12-03T18:21:43.684Z,25.20
2022-12-03T18:24:31.153Z,22.80
2022-12-03T18:27:19.963Z,26.20
2022-12-03T18:30:08.125Z,27.90
2022-12-03T18:32:55.743Z,26.98
2022-12-03T18:35:44.011Z,27.27
2022-12-03T18:38:33.443Z,25.73
2022-12-03T18:41:25.088Z,24.65
2022-12-03T18:44:12.792Z,26.42
2022-12-03T18:47:01.050Z,26.98
2022-12-03T18:49:48.937Z,27.73
2022-12-03T18:52:37.034Z,27.92
2022-12-03T18:55:27.357Z,29.63
2022-12-03T18:58:14.806Z,28.23
2022-12-03T19:01:02.530Z,27.52
2022-12-03T19:03:50.301Z,29.17
2022-12-03T19:06:37.790Z,26.75
2022-12-03T19:09:25.197Z,30.05
2022-12-03T19:12:14.723Z,28.80
2022-12-03T19:15:03.043Z,28.25
2022-12-03T19:17:51.137Z,29.10
2022-12-03T19:20:41.137Z,26.85
2022-12-03T19:23:28.669Z,28.80
2022-12-03T19:26:17.279Z,28.83
2022-12-03T19:29:04.641Z,34.47
2022-12-03T19:31:52.798Z,29.20
2022-12-03T19:34:40.192Z,29.73
2022-12-03T19:37:27.503Z,29.13
2022-12-03T19:40:18.586Z,29.25
2022-12-03T19:43:05.936Z,28.58
2022-12-03T19:45:54.487Z,28.65
2022-12-03T19:48:42.550Z,28.95
2022-12-03T19:51:37.013Z,29.17
2022-12-03T19:54:24.501Z,29.75
2022-12-03T19:57:11.809Z,27.83
2022-12-03T19:59:59.272Z,29.23
2022-12-03T20:02:49.116Z,30.40
2022-12-03T20:05:41.095Z,28.17
2022-12-03T20:08:28.563Z,28.95
2022-12-03T20:11:24.470Z,24.95
2022-12-03T20:14:15.273Z,25.10
2022-12-03T20:17:02.722Z,27.23
2022-12-03T20:19:50.225Z,28.55
2022-12-03T20:22:37.707Z,27.58
2022-12-03T20:25:25.057Z,28.33
2022-12-03T20:28:12.381Z,27.50
2022-12-03T20:31:01.508Z,26.58
2022-12-03T20:33:51.712Z,30.75
2022-12-03T20:36:39.959Z,27.88
2022-12-03T20:39:27.448Z,28.45
2022-12-03T20:42:14.797Z,26.83
2022-12-03T20:45:02.151Z,27.38
2022-12-03T20:47:49.519Z,26.88
2022-12-03T20:50:40.407Z,27.95
2022-12-03T20:53:27.805Z,26.85
2022-12-03T20:56:21.198Z,28.27
2022-12-03T20:59:12.228Z,28.52
2022-12-03T21:01:59.829Z,26.13
2022-12-03T21:04:47.375Z,28.10
2022-12-03T21:07:35.102Z,28.33
2022-12-03T21:10:44.606Z,27.90
2022-12-03T21:13:32.585Z,27.98
2022-12-03T21:16:52.037Z,27.85
2022-12-03T21:19:33.547Z,28.55
2022-12-03T21:22:20.828Z,28.58
2022-12-03T21:25:09.037Z,24.70
2022-12-03T21:27:57.088Z,28.08
2022-12-03T21:30:44.528Z,27.13
2022-12-03T21:33:32.476Z,26.98
2022-12-03T21:36:20.154Z,27.05
2022-12-03T21:39:08.056Z,27.33
2022-12-03T21:42:18.910Z,27.77
2022-12-03T21:45:03.221Z,26.70
2022-12-03T21:47:51.077Z,28.50
2022-12-03T21:50:38.536Z,27.33
2022-12-03T21:53:26.300Z,26.70
2022-12-03T21:56:16.774Z,24.85
2022-12-03T21:59:04.391Z,25.67
2022-12-03T22:01:52.205Z,28.48
2022-12-03T22:04:40.056Z,27.63
2022-12-03T22:07:27.467Z,27.67
2022-12-03T22:10:15.277Z,28.23
2022-12-03T22:13:03.210Z,26.33
2022-12-03T22:15:50.628Z,26.30
2022-12-03T22:18:38.165Z,27.13
2022-12-03T22:21:25.854Z,29.58
2022-12-03T22:24:13.205Z,27.58
2022-12-03T22:27:00.650Z,26.25
2022-12-03T22:29:48.019Z,28.90
2022-12-03T22:32:35.866Z,28.13
2022-12-03T22:35:23.245Z,26.70
2022-12-03T22:38:10.680Z,28.33
2022-12-03T22:40:58.145Z,24.88
2022-12-03T22:43:46.637Z,26.13
2022-12-03T22:46:34.047Z,24.42
2022-12-03T22:49:21.413Z,23.10
2022-12-03T22:52:09.177Z,30.25
2022-12-03T22:54:56.442Z,24.67
2022-12-03T22:57:43.829Z,25.90
2022-12-03T23:00:35.208Z,25.77
2022-12-03T23:03:23.267Z,29.80
2022-12-03T23:06:12.359Z,25.67
2022-12-03T23:09:01.562Z,25.50
2022-12-03T23:11:48.909Z,24.65
2022-12-03T23:14:36.781Z,25.33
2022-12-03T23:17:24.109Z,24.98
2022-12-03T23:20:12.221Z,27.35
2022-12-03T23:22:59.646Z,25.35
2022-12-03T23:26:00.535Z,26.85
2022-12-03T23:28:48.042Z,23.27
2022-12-03T23:31:36.251Z,24.40
2022-12-03T23:34:23.806Z,26.48
2022-12-03T23:37:11.270Z,25.23
2022-12-03T23:39:58.576Z,24.60
2022-12-03T23:42:46.007Z,24.42
2022-12-03T23:45:34.481Z,29.50
2022-12-03T23:48:21.890Z,27.23
2022-12-03T23:51:12.188Z,24.83
2022-12-03T23:53:59.585Z,26.17
2022-12-03T23:56:46.901Z,21.45
2022-12-03T23:59:34.528Z,26.92
